createdAt,value
2019-01-06T00:00:24.470Z,5.10
2019-01-06T00:03:29.958Z,5.10
2019-01-06T00:06:29.897Z,5.10
2019-01-06T00:09:30.115Z,5.00
2019-01-06T00:12:29.714Z,5.10
2019-01-06T00:15:35.401Z,5.00
2019-01-06T00:18:34.348Z,5.00
2019-01-06T00:21:34.347Z,5.10
2019-01-06T00:24:34.850Z,5.00
2019-01-06T00:27:34.432Z,5.00
2019-01-06T00:30:37.362Z,5.10
2019-01-06T00:33:40.036Z,5.00
2019-01-06T00:36:40.147Z,5.00
2019-01-06T00:39:40.652Z,5.00
2019-01-06T00:42:40.577Z,5.00
2019-01-06T00:45:36.885Z,5.00
2019-01-06T00:48:36.829Z,5.00
2019-01-06T00:51:36.998Z,5.10
2019-01-06T00:54:37.718Z,5.10
2019-01-06T00:57:37.123Z,5.00
2019-01-06T01:00:36.754Z,5.00
2019-01-06T01:03:40.226Z,5.00
2019-01-06T01:06:40.237Z,5.00
2019-01-06T01:09:43.526Z,5.00
2019-01-06T01:12:43.031Z,5.00
2019-01-06T01:15:42.636Z,5.00
2019-01-06T01:18:41.384Z,5.00
2019-01-06T01:21:40.925Z,5.00
2019-01-06T01:24:40.505Z,5.00
2019-01-06T01:27:34.552Z,5.00
2019-01-06T01:30:34.285Z,4.90
2019-01-06T01:33:34.947Z,4.90
2019-01-06T01:36:35.213Z,5.00
2019-01-06T01:39:41.467Z,4.90
2019-01-06T01:42:41.694Z,5.00
2019-01-06T01:45:42.025Z,4.90
2019-01-06T01:48:42.439Z,4.90
2019-01-06T01:51:45.867Z,4.90
2019-01-06T01:54:45.413Z,4.90
2019-01-06T01:57:44.984Z,4.90
2019-01-06T02:00:44.652Z,4.90
2019-01-06T02:03:45.472Z,4.90
2019-01-06T02:06:48.958Z,4.90
2019-01-06T02:09:49.421Z,4.90
2019-01-06T02:12:50.236Z,4.90
2019-01-06T02:15:50.850Z,4.90
2019-01-06T02:18:51.485Z,4.90
2019-01-06T02:21:51.004Z,4.90
2019-01-06T02:24:56.510Z,4.80
2019-01-06T02:28:01.960Z,4.80
2019-01-06T02:31:02.139Z,4.80
2019-01-06T02:34:02.396Z,4.80
2019-01-06T02:37:05.078Z,4.80
2019-01-06T02:40:10.768Z,4.80
2019-01-06T02:43:10.613Z,4.80
2019-01-06T02:46:10.876Z,4.80
2019-01-06T02:49:10.721Z,4.80
2019-01-06T02:52:13.886Z,4.80
2019-01-06T02:55:13.617Z,4.80
2019-01-06T02:58:13.256Z,4.80
2019-01-06T03:01:13.618Z,4.80
2019-01-06T03:04:07.366Z,4.80
2019-01-06T03:07:07.369Z,4.80
2019-01-06T03:10:07.475Z,4.70
2019-01-06T03:13:13.745Z,4.70
2019-01-06T03:16:13.961Z,4.70
2019-01-06T03:19:13.449Z,4.80
2019-01-06T03:22:13.078Z,4.70
2019-01-06T03:25:12.715Z,4.70
2019-01-06T03:28:12.989Z,4.70
2019-01-06T03:31:12.535Z,4.70
2019-01-06T03:34:19.192Z,4.80
2019-01-06T03:37:19.509Z,4.80
2019-01-06T03:40:19.879Z,4.70
2019-01-06T03:43:20.098Z,4.70
2019-01-06T03:46:20.549Z,4.70
2019-01-06T03:49:21.013Z,4.70
2019-01-06T03:52:21.905Z,4.80
2019-01-06T03:55:22.085Z,4.80
2019-01-06T03:58:21.830Z,4.70
2019-01-06T04:01:22.410Z,4.70
2019-01-06T04:04:19.350Z,4.70
2019-01-06T04:07:19.217Z,4.80
2019-01-06T04:10:12.839Z,4.80
2019-01-06T04:13:14.662Z,4.80
2019-01-06T04:16:14.157Z,4.80
2019-01-06T04:19:19.598Z,4.80
2019-01-06T04:22:19.602Z,4.80
2019-01-06T04:25:19.294Z,4.80
2019-01-06T04:28:19.113Z,4.80
2019-01-06T04:31:18.425Z,4.80
2019-01-06T04:34:16.911Z,4.80
2019-01-06T04:37:16.835Z,4.70
2019-01-06T04:40:16.591Z,4.80
2019-01-06T04:43:17.012Z,4.70
2019-01-06T04:46:17.454Z,4.80
2019-01-06T04:49:18.005Z,4.80
2019-01-06T04:52:17.832Z,4.70
2019-01-06T04:55:18.348Z,4.70
2019-01-06T04:58:18.703Z,4.80
2019-01-06T05:01:24.566Z,4.80
2019-01-06T05:04:24.060Z,4.80
2019-01-06T05:07:24.099Z,4.80
2019-01-06T05:10:23.939Z,4.80
2019-01-06T05:13:17.650Z,4.80
2019-01-06T05:16:21.065Z,4.80
2019-01-06T05:19:21.544Z,4.80
2019-01-06T05:22:21.069Z,4.80
2019-01-06T05:25:21.421Z,4.80
2019-01-06T05:28:22.024Z,4.80
2019-01-06T05:31:22.417Z,4.80
2019-01-06T05:34:22.744Z,4.70
2019-01-06T05:37:23.234Z,4.70
2019-01-06T05:40:17.506Z,4.80
2019-01-06T05:43:17.682Z,4.80
2019-01-06T05:46:13.059Z,4.80
2019-01-06T05:49:15.759Z,4.70
2019-01-06T05:52:16.156Z,4.70
2019-01-06T05:55:21.842Z,4.80
2019-01-06T05:58:28.373Z,4.80
2019-01-06T06:01:30.945Z,4.70
2019-01-06T06:04:31.116Z,4.80
2019-01-06T06:07:34.031Z,4.80
2019-01-06T06:10:34.266Z,4.80
2019-01-06T06:13:33.991Z,4.80
2019-01-06T06:16:36.353Z,4.80
2019-01-06T06:19:36.376Z,4.80
2019-01-06T06:22:36.685Z,4.80
2019-01-06T06:25:36.186Z,4.80
2019-01-06T06:28:36.652Z,4.80
2019-01-06T06:31:39.965Z,4.80
2019-01-06T06:34:40.168Z,4.80
2019-01-06T06:37:39.917Z,4.80
2019-01-06T06:40:42.770Z,4.80
2019-01-06T06:43:36.634Z,4.80
2019-01-06T06:46:40.451Z,4.80
2019-01-06T06:49:40.520Z,4.90
2019-01-06T06:52:36.060Z,4.80
2019-01-06T06:55:36.074Z,4.80
2019-01-06T06:58:36.405Z,4.80
2019-01-06T07:01:30.769Z,4.80
2019-01-06T07:04:30.955Z,4.80
2019-01-06T07:07:31.142Z,4.70
2019-01-06T07:10:31.445Z,4.70
2019-01-06T07:13:30.996Z,4.70
2019-01-06T07:16:37.419Z,4.70
2019-01-06T07:19:37.798Z,4.70
2019-01-06T07:22:38.240Z,4.70
2019-01-06T07:25:38.373Z,4.80
2019-01-06T07:28:35.278Z,4.80
2019-01-06T07:31:41.469Z,4.70
2019-01-06T07:34:42.613Z,4.70
2019-01-06T07:37:42.525Z,4.70
2019-01-06T07:40:42.359Z,4.70
2019-01-06T07:43:44.352Z,4.70
2019-01-06T07:46:44.526Z,4.70
2019-01-06T07:49:44.817Z,4.70
2019-01-06T07:52:44.374Z,4.60
2019-01-06T07:55:45.012Z,4.70
2019-01-06T07:58:45.137Z,4.60
2019-01-06T08:01:37.330Z,4.60
2019-01-06T08:04:37.768Z,4.60
2019-01-06T08:07:36.653Z,4.70
2019-01-06T08:10:25.619Z,4.70
2019-01-06T08:13:13.141Z,4.60
2019-01-06T08:16:13.718Z,4.60
2019-01-06T08:19:06.518Z,4.60
2019-01-06T08:21:53.462Z,4.60
2019-01-06T08:24:43.919Z,4.60
2019-01-06T08:27:32.583Z,4.60
2019-01-06T08:30:19.625Z,4.60
2019-01-06T08:33:06.662Z,4.70
2019-01-06T08:35:57.502Z,4.60
2019-01-06T08:38:55.232Z,4.60
2019-01-06T08:41:46.387Z,4.60
2019-01-06T08:44:40.510Z,4.70
2019-01-06T08:47:44.132Z,4.70
2019-01-06T08:50:32.884Z,4.60
2019-01-06T08:53:36.673Z,4.60
2019-01-06T08:56:24.077Z,4.70
2019-01-06T08:59:18.822Z,4.70
2019-01-06T09:02:07.882Z,4.70
2019-01-06T09:05:05.793Z,4.70
2019-01-06T09:08:00.333Z,4.70
2019-01-06T09:10:57.844Z,4.70
2019-01-06T09:14:04.565Z,4.70
2019-01-06T09:16:52.378Z,4.80
2019-01-06T09:19:50.217Z,4.80
2019-01-06T09:22:34.249Z,4.80
2019-01-06T09:25:25.669Z,4.80
2019-01-06T09:28:15.611Z,4.80
2019-01-06T09:31:13.186Z,4.80
2019-01-06T09:34:00.200Z,4.80
2019-01-06T09:36:47.446Z,4.80
2019-01-06T09:39:29.512Z,4.80
2019-01-06T09:42:26.775Z,4.80
2019-01-06T09:45:24.214Z,4.70
2019-01-06T09:48:10.933Z,4.80
2019-01-06T09:50:58.322Z,4.80
2019-01-06T09:54:05.143Z,4.80
2019-01-06T09:57:08.876Z,4.80
2019-01-06T09:59:56.443Z,4.80
2019-01-06T10:02:48.953Z,4.80
2019-01-06T10:05:36.154Z,4.80
2019-01-06T10:08:22.962Z,4.90
2019-01-06T10:11:20.746Z,4.90
2019-01-06T10:14:08.056Z,4.90
2019-01-06T10:16:56.749Z,4.90
2019-01-06T10:19:40.133Z,5.00
2019-01-06T10:22:40.852Z,4.90
2019-01-06T10:25:36.939Z,4.90
2019-01-06T10:28:24.038Z,4.90
2019-01-06T10:31:17.721Z,4.90
2019-01-06T10:34:21.595Z,4.90
2019-01-06T10:37:15.843Z,5.00
2019-01-06T10:40:10.351Z,4.90
2019-01-06T10:42:57.865Z,4.90
2019-01-06T10:45:55.382Z,4.90
2019-01-06T10:48:42.446Z,5.00
2019-01-06T10:51:33.905Z,5.00
2019-01-06T10:54:17.120Z,5.00
2019-01-06T10:57:06.056Z,5.00
2019-01-06T10:59:53.398Z,5.00
2019-01-06T11:02:54.053Z,5.00
2019-01-06T11:05:41.025Z,5.00
2019-01-06T11:08:38.536Z,5.00
2019-01-06T11:11:39.503Z,5.10
2019-01-06T11:14:32.364Z,5.10
2019-01-06T11:17:19.788Z,5.10
2019-01-06T11:20:14.243Z,5.20
2019-01-06T11:23:08.541Z,5.10
2019-01-06T11:26:02.691Z,5.10
2019-01-06T11:28:48.575Z,5.20
2019-01-06T11:31:35.466Z,5.20
2019-01-06T11:34:36.094Z,5.10
2019-01-06T11:37:30.835Z,5.10
2019-01-06T11:40:22.302Z,5.10
2019-01-06T11:43:10.979Z,5.20
2019-01-06T11:45:57.569Z,5.20
2019-01-06T11:48:44.538Z,5.20
2019-01-06T11:51:45.369Z,5.20
2019-01-06T11:54:32.545Z,5.20
2019-01-06T11:57:26.983Z,5.20
2019-01-06T12:00:15.714Z,5.20
2019-01-06T12:03:07.402Z,5.30
2019-01-06T12:06:04.440Z,5.20
2019-01-06T12:09:02.048Z,5.20
2019-01-06T12:11:53.550Z,5.20
2019-01-06T12:14:44.983Z,5.20
2019-01-06T12:17:32.777Z,5.30
2019-01-06T12:20:19.913Z,5.30
2019-01-06T12:23:02.498Z,5.30
2019-01-06T12:25:57.001Z,5.30
2019-01-06T12:29:00.774Z,5.40
2019-01-06T12:31:52.010Z,5.30
2019-01-06T12:34:58.324Z,5.40
2019-01-06T12:37:45.534Z,5.40
2019-01-06T12:40:32.180Z,5.40
2019-01-06T12:43:19.201Z,5.50
2019-01-06T12:46:20.640Z,5.50
2019-01-06T12:49:09.065Z,5.50
2019-01-06T12:51:56.049Z,5.50
2019-01-06T12:54:44.529Z,5.50
2019-01-06T12:57:40.400Z,5.60
2019-01-06T13:00:35.245Z,5.60
2019-01-06T13:03:23.957Z,5.70
2019-01-06T13:06:19.036Z,5.60
2019-01-06T13:09:08.054Z,5.60
2019-01-06T13:12:14.475Z,5.70
2019-01-06T13:15:00.886Z,5.70
2019-01-06T13:17:48.026Z,5.60
2019-01-06T13:20:39.497Z,5.60
2019-01-06T13:23:39.823Z,5.60
2019-01-06T13:26:26.678Z,5.70
2019-01-06T13:29:18.046Z,5.60
2019-01-06T13:32:09.873Z,5.60
2019-01-06T13:35:01.416Z,5.60
2019-01-06T13:37:48.750Z,5.60
2019-01-06T13:40:35.828Z,5.60
2019-01-06T13:43:32.329Z,5.60
2019-01-06T13:46:23.983Z,5.60
2019-01-06T13:49:10.797Z,5.70
2019-01-06T13:52:02.006Z,5.70
2019-01-06T13:54:51.061Z,5.70
2019-01-06T13:57:37.753Z,5.70
2019-01-06T14:00:33.380Z,5.70
2019-01-06T14:03:22.274Z,5.70
2019-01-06T14:06:10.714Z,5.70
2019-01-06T14:08:59.092Z,5.60
2019-01-06T14:11:54.877Z,5.60
2019-01-06T14:15:01.898Z,5.60
2019-01-06T14:17:48.873Z,5.50
2019-01-06T14:20:49.465Z,5.60
2019-01-06T14:23:46.897Z,5.50
2019-01-06T14:26:33.229Z,5.50
2019-01-06T14:29:19.905Z,5.50
2019-01-06T14:32:08.305Z,5.50
2019-01-06T14:35:15.547Z,5.50
2019-01-06T14:38:07.398Z,5.50
2019-01-06T14:41:05.061Z,5.40
2019-01-06T14:43:59.186Z,5.50
2019-01-06T14:46:57.317Z,5.40
2019-01-06T14:49:51.781Z,5.40
2019-01-06T14:52:38.890Z,5.40
2019-01-06T14:55:27.427Z,5.40
2019-01-06T14:58:15.028Z,5.40
2019-01-06T15:01:09.476Z,5.40
2019-01-06T15:03:58.441Z,5.40
2019-01-06T15:06:56.792Z,5.40
2019-01-06T15:09:46.001Z,5.40
2019-01-06T15:12:50.790Z,5.40
2019-01-06T15:15:38.530Z,5.40
2019-01-06T15:18:27.228Z,5.30
2019-01-06T15:21:24.498Z,5.40
2019-01-06T15:24:27.807Z,5.30
2019-01-06T15:27:18.809Z,5.30
2019-01-06T15:30:05.551Z,5.30
2019-01-06T15:33:00.056Z,5.20
2019-01-06T15:35:54.449Z,5.20
2019-01-06T15:38:48.713Z,5.20
2019-01-06T15:41:51.975Z,5.20
2019-01-06T15:44:55.537Z,5.20
2019-01-06T15:47:44.571Z,5.20
2019-01-06T15:50:33.386Z,5.20
2019-01-06T15:53:20.675Z,5.10
2019-01-06T15:56:21.417Z,5.10
2019-01-06T15:59:18.927Z,5.10
2019-01-06T16:02:06.064Z,5.10
2019-01-06T16:04:52.798Z,5.10
2019-01-06T16:07:57.043Z,5.00
2019-01-06T16:10:46.736Z,5.00
2019-01-06T16:13:47.624Z,5.00
2019-01-06T16:16:48.720Z,5.00
2019-01-06T16:19:52.037Z,4.90
2019-01-06T16:22:40.638Z,5.00
2019-01-06T16:25:40.889Z,5.00
2019-01-06T16:28:29.290Z,4.90
2019-01-06T16:31:26.849Z,4.90
2019-01-06T16:34:13.877Z,4.90
2019-01-06T16:37:01.160Z,4.90
2019-01-06T16:39:51.982Z,4.90
2019-01-06T16:42:40.646Z,4.90
2019-01-06T16:45:40.837Z,4.90
2019-01-06T16:48:27.545Z,4.90
2019-01-06T16:51:30.031Z,4.90
2019-01-06T16:54:24.607Z,4.80
2019-01-06T16:57:12.298Z,4.80
2019-01-06T17:00:04.133Z,4.80
2019-01-06T17:03:01.994Z,4.80
2019-01-06T17:05:50.365Z,4.80
2019-01-06T17:08:51.005Z,4.80
2019-01-06T17:11:54.356Z,4.80
2019-01-06T17:14:43.245Z,4.80
2019-01-06T17:17:31.902Z,4.80
2019-01-06T17:20:19.388Z,4.80
2019-01-06T17:23:20.020Z,4.80
2019-01-06T17:26:09.193Z,4.80
2019-01-06T17:28:57.952Z,4.80
2019-01-06T17:31:46.296Z,4.80
2019-01-06T17:34:46.852Z,4.80
2019-01-06T17:37:40.822Z,4.70
2019-01-06T17:40:33.643Z,4.70
2019-01-06T17:43:20.668Z,4.70
2019-01-06T17:46:11.290Z,4.80
2019-01-06T17:49:08.835Z,4.70
2019-01-06T17:52:09.093Z,4.70
2019-01-06T17:54:57.192Z,4.70
2019-01-06T17:57:43.943Z,4.70
2019-01-06T18:00:44.222Z,4.70
2019-01-06T18:03:38.625Z,4.70
2019-01-06T18:06:19.249Z,4.70
2019-01-06T18:09:05.917Z,4.70
2019-01-06T18:12:06.541Z,4.70
2019-01-06T18:14:53.603Z,4.70
2019-01-06T18:17:41.938Z,4.70
2019-01-06T18:20:45.382Z,4.70
2019-01-06T18:23:36.119Z,4.70
2019-01-06T18:26:22.884Z,4.80
2019-01-06T18:29:11.270Z,4.70
2019-01-06T18:31:59.888Z,4.80
2019-01-06T18:34:52.046Z,4.80
2019-01-06T18:37:37.338Z,4.80
2019-01-06T18:40:24.577Z,4.70
2019-01-06T18:43:07.340Z,4.70
2019-01-06T18:45:52.930Z,4.80
2019-01-06T18:48:39.853Z,4.70
2019-01-06T18:51:40.549Z,4.70
2019-01-06T18:54:36.276Z,4.70
2019-01-06T18:57:23.948Z,4.70
2019-01-06T19:00:18.597Z,4.70
2019-01-06T19:03:15.542Z,4.70
2019-01-06T19:06:02.750Z,4.70
2019-01-06T19:08:51.428Z,4.70
2019-01-06T19:11:39.812Z,4.70
2019-01-06T19:14:26.575Z,4.70
2019-01-06T19:17:25.048Z,4.70
2019-01-06T19:20:22.758Z,4.70
2019-01-06T19:23:17.607Z,4.70
2019-01-06T19:26:18.642Z,4.70
2019-01-06T19:29:07.325Z,4.70
2019-01-06T19:31:53.932Z,4.70
2019-01-06T19:34:42.614Z,4.70
2019-01-06T19:37:32.496Z,4.70
2019-01-06T19:40:33.410Z,4.70
2019-01-06T19:43:25.838Z,4.70
2019-01-06T19:46:17.575Z,4.70
2019-01-06T19:49:08.361Z,4.70
2019-01-06T19:51:54.845Z,4.70
2019-01-06T19:54:41.813Z,4.70
2019-01-06T19:57:30.505Z,4.70
2019-01-06T20:00:37.043Z,4.70
2019-01-06T20:03:36.187Z,4.70
2019-01-06T20:06:24.625Z,4.60
2019-01-06T20:09:12.997Z,4.70
2019-01-06T20:12:10.457Z,4.70
2019-01-06T20:15:14.289Z,4.60
2019-01-06T20:18:08.521Z,4.70
2019-01-06T20:20:52.610Z,4.60
2019-01-06T20:23:40.011Z,4.60
2019-01-06T20:26:34.558Z,4.60
2019-01-06T20:29:32.092Z,4.70
2019-01-06T20:32:32.597Z,4.70
2019-01-06T20:35:29.213Z,4.70
2019-01-06T20:38:17.765Z,4.60
2019-01-06T20:41:04.544Z,4.60
2019-01-06T20:43:59.147Z,4.60
2019-01-06T20:46:49.397Z,4.60
2019-01-06T20:49:47.623Z,4.70
2019-01-06T20:52:42.178Z,4.60
2019-01-06T20:55:48.263Z,4.60
2019-01-06T20:58:46.033Z,4.60
2019-01-06T21:01:39.996Z,4.60
2019-01-06T21:04:27.327Z,4.60
2019-01-06T21:07:15.725Z,4.60
2019-01-06T21:10:09.830Z,4.50
2019-01-06T21:12:58.529Z,4.60
2019-01-06T21:16:00.405Z,4.60
2019-01-06T21:18:47.534Z,4.60
2019-01-06T21:21:34.598Z,4.60
2019-01-06T21:24:34.965Z,4.60
2019-01-06T21:27:41.301Z,4.60
2019-01-06T21:30:35.551Z,4.60
2019-01-06T21:33:23.866Z,4.60
2019-01-06T21:36:10.674Z,4.60
2019-01-06T21:39:06.250Z,4.60
2019-01-06T21:42:00.705Z,4.60
2019-01-06T21:44:49.555Z,4.60
2019-01-06T21:47:53.121Z,4.60
2019-01-06T21:50:52.758Z,4.60
2019-01-06T21:53:41.686Z,4.60
2019-01-06T21:56:39.482Z,4.60
2019-01-06T21:59:24.453Z,4.60
2019-01-06T22:02:11.730Z,4.60
2019-01-06T22:04:58.938Z,4.60
2019-01-06T22:08:02.574Z,4.60
2019-01-06T22:10:50.945Z,4.60
2019-01-06T22:13:47.723Z,4.60
2019-01-06T22:16:48.844Z,4.60
2019-01-06T22:19:34.361Z,4.60
2019-01-06T22:22:18.069Z,4.60
2019-01-06T22:25:13.561Z,4.50
2019-01-06T22:27:55.693Z,4.50
2019-01-06T22:30:42.962Z,4.50
2019-01-06T22:33:27.831Z,4.60
2019-01-06T22:36:14.586Z,4.50
2019-01-06T22:39:01.378Z,4.50
2019-01-06T22:41:48.066Z,4.50
2019-01-06T22:44:45.818Z,4.50
2019-01-06T22:47:32.890Z,4.50
2019-01-06T22:50:27.358Z,4.50
2019-01-06T22:53:18.189Z,4.40
2019-01-06T22:56:06.773Z,4.40
2019-01-06T22:59:04.177Z,4.40
2019-01-06T23:02:01.965Z,4.40
2019-01-06T23:04:48.869Z,4.40
2019-01-06T23:07:36.149Z,4.40
2019-01-06T23:10:30.204Z,4.40
2019-01-06T23:13:21.269Z,4.40
2019-01-06T23:16:08.632Z,4.30
2019-01-06T23:19:08.801Z,4.30
2019-01-06T23:21:55.658Z,4.30
2019-01-06T23:24:42.734Z,4.30
2019-01-06T23:27:24.039Z,4.30
2019-01-06T23:30:10.793Z,4.30
2019-01-06T23:32:59.206Z,4.30
2019-01-06T23:35:50.742Z,4.20
2019-01-06T23:38:48.764Z,4.20
2019-01-06T23:41:49.210Z,4.30
2019-01-06T23:44:36.228Z,4.20
2019-01-06T23:47:42.852Z,4.20
2019-01-06T23:50:38.409Z,4.20
2019-01-06T23:53:35.705Z,4.20
2019-01-06T23:56:23.051Z,4.20
2019-01-06T23:59:10.393Z,4.20
